Main page
Satellite images 15-day forecastsClimateMarine weather Cyclones Lightning AirportsFAQ Newsletter About
Weather : Europe Africa North America South America Asia Australia-Oceania Others
Languages Contact

Gloucester, England

Gloucestershire Airport Staverton

latitude: 51-54N, longitude: 002-10W, elevation: 29 m


METAR: EGBJ 301620Z 17004KT 9999 FEW020 18/15 Q1016
TAF: EGBJ 301402Z 3015/3020 18009KT 9999 SCT012 TEMPO 3015/3020 8000 BKN012

Time: 16:37 (16:37 UTC)

Current weather observation

The report was made 17 minutes ago, at 16:20 UTC
Wind 4 kt from the South
Temperature 18°C
Humidity 83%
Pressure 1016 hPa
Visibility 10 km or more
Few clouds at a height of 2000 ft

Change units

Forecast

The report was made 2 hours and 35 minutes ago, at 14:02 UTC
Forecast valid from 30 at 15 UTC to 30 at 20 UTC
Wind 9 kt from the South
Visibility 10 km or more
Scattered clouds at a height of 1200 ft
Temporary
from 30 at 15 UTC to 30 at 20 UTC
Visibility: 8000 m
Broken clouds at a height of 1200 ft
The information on this site is subject to a disclaimer
Weather : Europe Africa North America South America Asia Australia-Oceania Others
Satellite images 15-day forecastsClimateMarine weather Cyclones Lightning AirportsFAQ Languages Contact Newsletter About